Time;durP1;ratioP1;P1;durP2;ratioP2;P2;SDS_P1;SDS_P2;PMS_P1;PMS_P2;Temp;Humidity;BMP_temperature;BMP_pressure;BME280_temperature;BME280_humidity;BME280_pressure;Samples;Min_cycle;Max_cycle;Signal;HPM_P1;HPM_P2
2023/03/25 00:01:24;;;;;;;;;;;;;;;7.66;100.00;95144.22;10502711;28;2074;-71
2023/03/25 00:06:34;;;;;;;;;;;;;;;7.52;100.00;95134.09;10506996;28;2252;-74
2023/03/25 00:11:37;;;;;;;;;;;;;;;7.51;100.00;95127.13;10514319;28;1942;-72
2023/03/25 00:16:40;;;;;;;;;;;;;;;7.42;100.00;95123.38;10512569;28;2024;-71
2023/03/25 00:21:43;;;;;;;;;;;;;;;7.48;100.00;95122.31;10513021;28;1952;-72
2023/03/25 00:26:47;;;;;;;;;;;;;;;7.41;100.00;95121.78;10485348;28;2126;-72
2023/03/25 00:31:50;;;;;;;;;;;;;;;7.48;100.00;95116.16;10511848;28;2094;-72
2023/03/25 00:36:53;;;;;;;;;;;;;;;7.57;100.00;95104.66;10509090;28;1967;-72
2023/03/25 00:41:58;;;;;;;;;;;;;;;7.67;100.00;95108.38;10502439;28;2176;-70
2023/03/25 00:47:00;;;;;;;;;;;;;;;7.74;100.00;95099.00;10502569;28;2048;-76
2023/03/25 00:52:03;;;;;;;;;;;;;;;7.91;100.00;95097.88;10506267;28;2105;-72
2023/03/25 00:57:05;;;;;;;;;;;;;;;8.04;100.00;95086.59;10509759;28;1974;-72
2023/03/25 01:08:28;;;;;;;;;;;;;;;8.21;100.00;95076.34;10481652;28;1901;-72
2023/03/25 01:13:30;;;;;;;;;;;;;;;8.23;100.00;95084.09;10510341;28;2034;-71
2023/03/25 01:18:36;;;;;;;;;;;;;;;8.23;100.00;95081.44;10505553;28;2029;-72
2023/03/25 01:23:39;;;;;;;;;;;;;;;8.43;100.00;95084.03;10513329;28;1998;-72
2023/03/25 01:28:41;;;;;;;;;;;;;;;8.51;100.00;95090.66;10505575;28;1983;-71
2023/03/25 01:33:44;;;;;;;;;;;;;;;8.45;100.00;95092.56;10510481;28;2032;-72
2023/03/25 01:38:49;;;;;;;;;;;;;;;8.48;100.00;95089.34;10507071;28;1936;-71
2023/03/25 01:43:51;;;;;;;;;;;;;;;8.52;100.00;95077.00;10508128;28;1999;-73
2023/03/25 01:48:54;;;;;;;;;;;;;;;8.48;100.00;95086.69;10518877;28;2117;-73
2023/03/25 01:53:57;;;;;;;;;;;;;;;8.43;100.00;95084.03;10507669;28;1950;-74
2023/03/25 01:59:00;;;;;;;;;;;;;;;8.48;100.00;95084.00;10508525;28;2026;-73
2023/03/25 02:04:08;;;;;;;;;;;;;;;8.57;100.00;95085.00;10510169;28;2101;-71
2023/03/25 02:09:12;;;;;;;;;;;;;;;8.60;100.00;95084.47;10499260;28;2031;-71
2023/03/25 02:14:14;;;;;;;;;;;;;;;8.59;100.00;95072.16;10506657;28;1912;-71
2023/03/25 02:19:18;;;;;;;;;;;;;;;8.56;100.00;95053.94;10501531;28;1959;-73
2023/03/25 02:24:24;;;;;;;;;;;;;;;8.51;100.00;95037.09;10503987;28;1950;-71
2023/03/25 02:29:27;;;;;;;;;;;;;;;8.44;100.00;95042.75;10504303;28;2049;-73
2023/03/25 02:34:32;;;;;;;;;;;;;;;8.37;100.00;95039.59;10513819;28;1918;-71
2023/03/25 02:39:34;;;;;;;;;;;;;;;8.20;100.00;95068.56;10504780;28;1975;-73
2023/03/25 02:44:37;;;;;;;;;;;;;;;8.01;100.00;95071.06;10508006;28;2006;-72
2023/03/25 02:49:39;;;;;;;;;;;;;;;7.91;100.00;95071.91;10498932;28;2096;-72
2023/03/25 02:54:43;;;;;;;;;;;;;;;7.97;100.00;95078.84;10509757;28;2042;-72
2023/03/25 02:59:46;;;;;;;;;;;;;;;7.85;100.00;95067.66;10514289;28;2049;-72
2023/03/25 03:04:49;;;;;;;;;;;;;;;7.82;100.00;95076.22;10508567;28;1986;-71
2023/03/25 03:09:52;;;;;;;;;;;;;;;7.86;100.00;95063.91;10525030;28;2007;-71
2023/03/25 03:14:55;;;;;;;;;;;;;;;7.98;100.00;95061.72;10510283;28;2058;-73
2023/03/25 03:20:04;;;;;;;;;;;;;;;7.95;100.00;95038.19;10513345;28;1967;-71
2023/03/25 03:25:07;;;;;;;;;;;;;;;7.83;100.00;95049.22;10506482;28;1987;-72
2023/03/25 03:30:10;;;;;;;;;;;;;;;7.68;100.00;95048.44;10508233;28;2548;-72
2023/03/25 03:35:14;;;;;;;;;;;;;;;7.56;100.00;95049.53;10513076;28;2005;-71
2023/03/25 03:40:27;;;;;;;;;;;;;;;7.41;100.00;95060.28;10509429;28;2008;-72
2023/03/25 03:45:30;;;;;;;;;;;;;;;7.37;100.00;95074.47;10504126;28;1943;-72
2023/03/25 03:50:33;;;;;;;;;;;;;;;7.21;100.00;95077.16;10507374;28;1980;-72
2023/03/25 03:55:37;;;;;;;;;;;;;;;7.16;100.00;95077.16;10503454;28;1963;-71
2023/03/25 04:00:41;;;;;;;;;;;;;;;7.07;100.00;95084.13;10512931;28;2013;-72
2023/03/25 04:05:44;;;;;;;;;;;;;;;6.97;100.00;95089.47;10517851;28;2005;-71
2023/03/25 04:10:51;;;;;;;;;;;;;;;6.93;100.00;95081.19;10506017;28;2030;-72
2023/03/25 04:15:54;;;;;;;;;;;;;;;6.90;100.00;95092.41;10504882;28;1978;-72
2023/03/25 04:20:57;;;;;;;;;;;;;;;6.91;100.00;95091.34;10521906;28;1955;-72
2023/03/25 04:26:01;;;;;;;;;;;;;;;6.82;100.00;95087.59;10512062;28;2132;-72
2023/03/25 04:31:05;;;;;;;;;;;;;;;6.75;100.00;95103.09;10505495;28;2110;-72
2023/03/25 04:36:08;;;;;;;;;;;;;;;6.83;100.00;95089.19;10502746;28;2097;-72
2023/03/25 04:41:10;;;;;;;;;;;;;;;6.90;100.00;95092.41;10505900;28;2021;-71
2023/03/25 04:46:13;;;;;;;;;;;;;;;6.93;100.00;95099.88;10502079;28;1978;-71
2023/03/25 04:51:16;;;;;;;;;;;;;;;6.91;100.00;95095.88;10507363;28;2112;-72
2023/03/25 04:56:18;;;;;;;;;;;;;;;6.99;100.00;95087.31;10514799;28;2027;-71
2023/03/25 05:01:22;;;;;;;;;;;;;;;7.05;100.00;95094.28;10482897;28;2184;-72
2023/03/25 05:06:24;;;;;;;;;;;;;;;7.13;100.00;95074.25;10500449;28;2031;-72
2023/03/25 05:11:28;;;;;;;;;;;;;;;7.13;100.00;95088.41;10503176;28;2085;-72
2023/03/25 05:16:30;;;;;;;;;;;;;;;7.15;100.00;95080.13;10506615;28;2125;-74
2023/03/25 05:21:34;;;;;;;;;;;;;;;7.21;100.00;95093.22;10503540;28;2005;-72
2023/03/25 05:26:38;;;;;;;;;;;;;;;7.28;100.00;95088.38;10502748;28;2072;-72
2023/03/25 05:31:41;;;;;;;;;;;;;;;7.38;100.00;95103.63;10507837;28;2067;-72
2023/03/25 05:36:44;;;;;;;;;;;;;;;7.62;100.00;95108.38;10499909;28;2191;-75
2023/03/25 05:41:47;;;;;;;;;;;;;;;7.67;100.00;95111.84;10499931;28;1970;-77
2023/03/25 05:46:50;;;;;;;;;;;;;;;8.04;100.00;95119.50;10501019;28;2058;-72
2023/03/25 05:51:54;;;;;;;;;;;;;;;8.18;100.00;95124.28;10498878;28;1976;-72
2023/03/25 05:56:56;;;;;;;;;;;;;;;8.10;100.00;95139.84;10500991;28;2172;-71
2023/03/25 06:01:59;;;;;;;;;;;;;;;8.03;100.00;95133.97;10503015;28;1931;-72
2023/03/25 06:07:03;;;;;;;;;;;;;;;8.00;100.00;95144.41;10510623;28;1970;-72
2023/03/25 06:12:05;;;;;;;;;;;;;;;8.05;100.00;95152.44;10478364;28;2089;-71
2023/03/25 06:17:08;;;;;;;;;;;;;;;7.98;100.00;95158.06;10501519;28;1973;-71
2023/03/25 06:22:10;;;;;;;;;;;;;;;8.16;100.00;95170.06;10508403;28;2152;-71
2023/03/25 06:27:13;;;;;;;;;;;;;;;8.13;100.00;95168.72;10503676;28;2030;-71
2023/03/25 06:32:16;;;;;;;;;;;;;;;8.20;100.00;95181.81;10504206;28;2042;-72
2023/03/25 06:37:18;;;;;;;;;;;;;;;8.22;100.00;95181.56;10507041;28;2070;-72
2023/03/25 06:42:21;;;;;;;;;;;;;;;8.12;100.00;95180.50;10516309;28;2057;-74
2023/03/25 06:47:25;;;;;;;;;;;;;;;7.96;100.00;95196.91;10512882;28;2125;-72
2023/03/25 06:52:31;;;;;;;;;;;;;;;8.00;100.00;95182.69;10512763;28;1990;-72
2023/03/25 06:57:33;;;;;;;;;;;;;;;7.97;100.00;95199.28;10518339;28;1979;-72
2023/03/25 07:02:36;;;;;;;;;;;;;;;8.15;100.00;95210.50;10514532;28;1971;-73
2023/03/25 07:07:39;;;;;;;;;;;;;;;8.27;100.00;95219.00;10509646;28;1973;-72
2023/03/25 07:12:41;;;;;;;;;;;;;;;8.18;100.00;95226.00;10522926;28;1993;-72
2023/03/25 07:17:47;;;;;;;;;;;;;;;7.98;100.00;95216.94;10507356;28;1993;-72
2023/03/25 07:22:51;;;;;;;;;;;;;;;7.77;100.00;95234.91;10507384;28;1987;-75
2023/03/25 07:27:53;;;;;;;;;;;;;;;7.94;100.00;95236.47;10497984;28;2089;-72
2023/03/25 07:32:56;;;;;;;;;;;;;;;8.22;100.00;95237.78;10514363;28;1998;-71
2023/03/25 07:37:59;;;;;;;;;;;;;;;8.07;100.00;95242.09;10508940;28;1949;-71
2023/03/25 07:43:01;;;;;;;;;;;;;;;7.94;100.00;95248.00;10515492;28;2057;-74
2023/03/25 07:48:04;;;;;;;;;;;;;;;7.83;100.00;95247.22;10506683;28;1955;-72
2023/03/25 07:53:11;;;;;;;;;;;;;;;8.50;100.00;95253.25;10508212;28;2155;-71
2023/03/25 07:58:13;;;;;;;;;;;;;;;8.63;100.00;95260.72;10503645;28;1973;-72
2023/03/25 08:09:24;;;;;;;;;;;;;;;8.51;100.00;95257.53;10508257;28;2087;-71
2023/03/25 08:14:26;;;;;;;;;;;;;;;8.70;100.00;95259.63;10509816;28;1991;-72
2023/03/25 08:19:29;;;;;;;;;;;;;;;8.97;100.00;95276.16;10503837;28;2057;-72
2023/03/25 08:24:32;;;;;;;;;;;;;;;9.24;100.00;95261.53;10509011;28;1951;-73
2023/03/25 08:29:34;;;;;;;;;;;;;;;9.45;100.00;95249.56;10516793;28;1931;-72
2023/03/25 08:34:46;;;;;;;;;;;;;;;9.60;100.00;95246.78;10508725;28;1973;-72
2023/03/25 08:39:49;;;;;;;;;;;;;;;9.32;100.00;95244.84;10513163;28;1997;-73
2023/03/25 08:44:51;;;;;;;;;;;;;;;9.85;100.00;95223.50;10502582;28;2058;-72
2023/03/25 08:49:54;;;;;;;;;;;;;;;10.11;100.00;95235.59;10498604;28;2034;-72
2023/03/25 08:54:56;;;;;;;;;;;;;;;10.17;100.00;95239.03;10507306;28;2052;-73
2023/03/25 08:59:59;;;;;;;;;;;;;;;9.92;100.00;95248.13;10506590;28;2085;-73
2023/03/25 09:05:03;;;;;;;;;;;;;;;9.85;100.00;95247.66;10502065;28;2002;-73
2023/03/25 09:10:06;;;;;;;;;;;;;;;9.35;100.00;95237.06;10513454;28;2132;-74
2023/03/25 09:15:09;;;;;;;;;;;;;;;9.72;100.00;95241.06;10512718;28;1998;-74
2023/03/25 09:20:12;;;;;;;;;;;;;;;10.08;100.00;95246.94;10509826;28;2102;-75
2023/03/25 09:25:17;;;;;;;;;;;;;;;10.42;100.00;95236.13;10492295;28;1938;-75
2023/03/25 09:30:19;;;;;;;;;;;;;;;10.55;100.00;95223.91;10511397;28;2289;-73
2023/03/25 09:35:23;;;;;;;;;;;;;;;10.33;100.00;95219.03;10504861;28;2139;-73
2023/03/25 09:40:27;;;;;;;;;;;;;;;10.52;100.00;95221.78;10513177;28;2008;-72
2023/03/25 09:45:29;;;;;;;;;;;;;;;10.68;100.00;95217.81;10513080;28;2073;-73
2023/03/25 09:50:32;;;;;;;;;;;;;;;10.73;100.00;95215.09;10531443;28;1999;-72
2023/03/25 09:55:35;;;;;;;;;;;;;;;11.35;100.00;95199.72;10526528;28;1603;-74
2023/03/25 10:00:38;;;;;;;;;;;;;;;11.53;98.69;95210.75;10518723;28;1522;-71
2023/03/25 10:05:41;;;;;;;;;;;;;;;11.24;97.27;95192.88;10511214;28;1956;-74
2023/03/25 10:10:44;;;;;;;;;;;;;;;11.29;97.17;95192.81;10500863;28;2055;-72
2023/03/25 10:15:54;;;;;;;;;;;;;;;11.45;97.60;95197.94;10501846;28;2066;-73
2023/03/25 10:21:00;;;;;;;;;;;;;;;12.05;91.03;95173.84;10506057;28;1993;-72
2023/03/25 10:26:03;;;;;;;;;;;;;;;12.16;88.34;95159.09;10504407;28;1970;-72
2023/03/25 10:31:08;;;;;;;;;;;;;;;12.28;84.93;95158.56;10507623;28;1971;-72
2023/03/25 10:36:10;;;;;;;;;;;;;;;11.72;85.60;95151.50;10506720;28;1962;-71
2023/03/25 10:41:13;;;;;;;;;;;;;;;11.80;90.14;95158.91;10502019;28;2140;-72
2023/03/25 10:46:15;;;;;;;;;;;;;;;11.31;92.71;95166.41;10501039;28;1985;-73
2023/03/25 10:51:18;;;;;;;;;;;;;;;10.82;100.00;95175.72;10489011;28;1990;-73
2023/03/25 10:56:20;;;;;;;;;;;;;;;11.35;97.13;95153.97;10505574;28;1970;-71
2023/03/25 11:01:23;;;;;;;;;;;;;;;11.52;89.81;95145.38;10503218;28;1966;-72
2023/03/25 11:06:28;;;;;;;;;;;;;;;12.04;83.28;95145.31;10489627;28;2002;-74
2023/03/25 11:11:31;;;;;;;;;;;;;;;11.87;83.94;95152.06;10530294;28;2040;-72
2023/03/25 11:16:33;;;;;;;;;;;;;;;11.71;84.52;95142.63;10511885;28;1920;-71
2023/03/25 11:21:36;;;;;;;;;;;;;;;11.55;91.02;95103.59;10513994;28;1963;-73
2023/03/25 11:26:38;;;;;;;;;;;;;;;11.63;88.13;95124.44;10510066;28;1985;-72
2023/03/25 11:31:41;;;;;;;;;;;;;;;11.77;87.68;95114.53;10509596;28;2313;-72
2023/03/25 11:36:43;;;;;;;;;;;;;;;12.35;85.80;95119.38;10513427;28;2050;-73
2023/03/25 11:41:46;;;;;;;;;;;;;;;12.53;83.14;95114.16;10510763;28;2121;-72
2023/03/25 11:46:49;;;;;;;;;;;;;;;12.47;85.22;95094.59;10510730;28;2231;-73
2023/03/25 11:51:51;;;;;;;;;;;;;;;11.94;86.06;95102.38;10506616;28;1990;-74
2023/03/25 11:56:54;;;;;;;;;;;;;;;12.04;86.64;95102.22;10508890;28;2163;-74
2023/03/25 12:01:56;;;;;;;;;;;;;;;11.75;85.99;95070.13;10505410;28;2097;-73
2023/03/25 12:06:59;;;;;;;;;;;;;;;11.69;88.23;95090.94;10505729;28;1955;-72
2023/03/25 12:12:03;;;;;;;;;;;;;;;11.56;88.96;95068.31;10520170;28;2019;-73
2023/03/25 12:17:05;;;;;;;;;;;;;;;11.97;86.33;95072.19;10511988;28;1958;-72
2023/03/25 12:22:07;;;;;;;;;;;;;;;11.59;86.52;95075.00;10510412;28;1960;-72
2023/03/25 12:27:10;;;;;;;;;;;;;;;11.72;86.15;95052.69;10511465;28;1966;-72
2023/03/25 12:32:13;;;;;;;;;;;;;;;11.69;90.45;95064.03;10510521;28;2066;-72
2023/03/25 12:37:16;;;;;;;;;;;;;;;11.81;89.94;95063.59;10508390;28;2099;-75
2023/03/25 12:42:18;;;;;;;;;;;;;;;11.75;89.44;95068.22;10506250;28;1997;-76
2023/03/25 12:47:21;;;;;;;;;;;;;;;11.50;89.79;95071.38;10506623;28;1986;-73
2023/03/25 12:52:27;;;;;;;;;;;;;;;11.88;90.58;95072.84;10512021;28;1999;-72
2023/03/25 12:57:30;;;;;;;;;;;;;;;12.22;86.79;95070.88;10502927;28;1932;-72
2023/03/25 13:02:32;;;;;;;;;;;;;;;12.34;86.84;95036.94;10487391;28;2037;-76
2023/03/25 13:07:36;;;;;;;;;;;;;;;11.98;87.04;95071.06;10501661;28;1957;-78
2023/03/25 13:12:38;;;;;;;;;;;;;;;12.24;86.79;95052.50;10504686;28;1974;-74
2023/03/25 13:17:44;;;;;;;;;;;;;;;12.11;85.55;95073.78;10492030;28;2097;-72
2023/03/25 13:22:47;;;;;;;;;;;;;;;11.96;84.46;95067.88;10507430;28;2038;-74
2023/03/25 13:27:52;;;;;;;;;;;;;;;11.77;86.83;95052.59;10504028;28;1986;-73
2023/03/25 13:32:54;;;;;;;;;;;;;;;11.46;89.40;95065.81;10514369;28;2112;-73
2023/03/25 13:37:58;;;;;;;;;;;;;;;11.64;91.62;95056.88;10508702;28;2112;-73
2023/03/25 13:43:01;;;;;;;;;;;;;;;11.57;93.03;95050.25;10521839;28;1943;-73
2023/03/25 13:48:04;;;;;;;;;;;;;;;11.84;93.34;95066.50;10507556;28;1966;-73
2023/03/25 13:53:08;;;;;;;;;;;;;;;11.87;88.52;95060.50;10508963;28;2085;-71
2023/03/25 13:58:10;;;;;;;;;;;;;;;11.69;93.86;95055.16;10511339;28;2089;-73
2023/03/25 14:03:23;;;;;;;;;;;;;;;11.49;93.48;95070.59;10510989;28;1970;-73
2023/03/25 14:08:25;;;;;;;;;;;;;;;11.28;87.15;95059.38;10511571;28;1931;-72
2023/03/25 14:13:28;;;;;;;;;;;;;;;11.24;89.95;95058.38;10507017;28;2002;-71
2023/03/25 14:18:31;;;;;;;;;;;;;;;11.07;91.26;95053.53;10508535;28;2011;-74
2023/03/25 14:23:33;;;;;;;;;;;;;;;10.89;90.28;95072.41;10510520;28;2088;-73
2023/03/25 14:28:37;;;;;;;;;;;;;;;10.73;92.11;95053.78;10508141;28;1928;-73
2023/03/25 14:33:40;;;;;;;;;;;;;;;10.90;91.14;95058.66;10505175;28;1967;-72
2023/03/25 14:38:43;;;;;;;;;;;;;;;11.03;89.58;95060.59;10510981;28;1957;-72
2023/03/25 14:43:46;;;;;;;;;;;;;;;11.08;92.18;95055.13;10503586;28;1952;-73
2023/03/25 14:48:49;;;;;;;;;;;;;;;11.10;92.87;95052.16;10506052;28;2032;-72
2023/03/25 14:53:51;;;;;;;;;;;;;;;11.10;93.58;95041.38;10507662;28;2093;-72
2023/03/25 14:58:53;;;;;;;;;;;;;;;11.09;94.65;95040.59;10507093;28;2137;-73
2023/03/25 15:03:56;;;;;;;;;;;;;;;11.13;90.57;95048.06;10504264;28;1987;-72
2023/03/25 15:08:59;;;;;;;;;;;;;;;11.87;88.34;95036.25;10525014;28;1958;-73
2023/03/25 15:14:03;;;;;;;;;;;;;;;12.01;87.10;95024.69;10518219;28;1987;-72
2023/03/25 15:19:06;;;;;;;;;;;;;;;11.50;89.40;95050.66;10514785;28;2040;-73
2023/03/25 15:24:09;;;;;;;;;;;;;;;11.42;92.45;95047.84;10505909;28;1918;-73
2023/03/25 15:29:12;;;;;;;;;;;;;;;11.94;88.71;95037.75;10511753;28;2074;-73
2023/03/25 15:34:15;;;;;;;;;;;;;;;12.14;83.22;95029.25;10518884;28;2035;-72
2023/03/25 15:39:17;;;;;;;;;;;;;;;11.48;88.11;95042.06;10509810;28;2037;-71
2023/03/25 15:44:20;;;;;;;;;;;;;;;11.12;92.46;95047.25;10515686;28;2195;-72
2023/03/25 15:49:33;;;;;;;;;;;;;;;10.99;94.88;95045.31;10509444;28;2053;-72
2023/03/25 15:54:36;;;;;;;;;;;;;;;10.78;99.18;95048.34;10509848;28;2002;-71
2023/03/25 15:59:39;;;;;;;;;;;;;;;10.58;100.00;95045.97;10507942;28;2094;-72
2023/03/25 16:04:42;;;;;;;;;;;;;;;10.52;100.00;95071.31;10504886;28;2035;-71
2023/03/25 16:09:45;;;;;;;;;;;;;;;10.80;100.00;95058.78;10508146;28;2038;-73
2023/03/25 16:14:48;;;;;;;;;;;;;;;11.21;96.17;95058.97;10508553;28;1979;-73
2023/03/25 16:19:50;;;;;;;;;;;;;;;10.89;96.49;95058.94;10510099;28;2076;-72
2023/03/25 16:24:53;;;;;;;;;;;;;;;10.55;98.92;95057.28;10514039;28;1958;-74
2023/03/25 16:29:55;;;;;;;;;;;;;;;10.21;100.00;95069.00;10513434;28;2159;-72
2023/03/25 16:34:58;;;;;;;;;;;;;;;10.06;100.00;95076.44;10510870;28;2026;-71
2023/03/25 16:40:01;;;;;;;;;;;;;;;9.96;100.00;95085.41;10509372;28;1983;-72
2023/03/25 16:45:05;;;;;;;;;;;;;;;9.91;100.00;95075.50;10503251;28;2035;-72
2023/03/25 16:50:10;;;;;;;;;;;;;;;10.00;100.00;95092.63;10506486;28;1948;-73
2023/03/25 16:55:22;;;;;;;;;;;;;;;10.09;100.00;95084.72;10511135;28;2023;-74
2023/03/25 17:00:27;;;;;;;;;;;;;;;10.14;100.00;95108.81;10508626;28;1962;-72
2023/03/25 17:05:30;;;;;;;;;;;;;;;10.26;100.00;95114.63;10506500;28;2046;-71
2023/03/25 17:10:34;;;;;;;;;;;;;;;10.63;100.00;95117.66;10510195;28;2216;-73
2023/03/25 17:15:37;;;;;;;;;;;;;;;10.23;100.00;95125.13;10514553;28;2038;-72
2023/03/25 17:20:41;;;;;;;;;;;;;;;9.74;100.00;95118.94;10508607;28;1926;-73
2023/03/25 17:25:43;;;;;;;;;;;;;;;9.41;100.00;95117.09;10487602;28;1935;-72
2023/03/25 17:30:50;;;;;;;;;;;;;;;9.16;100.00;95128.81;10509980;28;1963;-72
2023/03/25 17:35:53;;;;;;;;;;;;;;;8.89;100.00;95131.97;10506396;28;2105;-74
2023/03/25 17:40:55;;;;;;;;;;;;;;;8.72;100.00;95139.59;10504097;28;2038;-72
2023/03/25 17:45:59;;;;;;;;;;;;;;;8.53;100.00;95137.53;10504132;28;2184;-72
2023/03/25 17:51:03;;;;;;;;;;;;;;;8.37;100.00;95157.44;10500877;28;2105;-72
2023/03/25 17:56:06;;;;;;;;;;;;;;;8.26;100.00;95158.50;10508164;28;2001;-71
2023/03/25 18:01:18;;;;;;;;;;;;;;;8.13;100.00;95155.34;10509630;28;2074;-71
2023/03/25 18:06:20;;;;;;;;;;;;;;;8.02;100.00;95159.13;10506651;28;2212;-72
2023/03/25 18:11:24;;;;;;;;;;;;;;;7.97;100.00;95175.22;10500254;28;2093;-71
2023/03/25 18:16:27;;;;;;;;;;;;;;;7.93;100.00;95173.34;10501117;28;1958;-71
2023/03/25 18:21:30;;;;;;;;;;;;;;;7.90;100.00;95182.72;10504448;28;2132;-74
2023/03/25 18:26:33;;;;;;;;;;;;;;;7.92;100.00;95180.56;10511560;28;2010;-72
2023/03/25 18:31:35;;;;;;;;;;;;;;;7.91;100.00;95187.00;10515677;28;1997;-73
2023/03/25 18:36:38;;;;;;;;;;;;;;;7.89;100.00;95194.50;10508394;28;1966;-72
2023/03/25 18:41:45;;;;;;;;;;;;;;;7.82;100.00;95186.75;10506864;28;2019;-72
2023/03/25 18:46:48;;;;;;;;;;;;;;;7.81;100.00;95192.34;10512963;28;2147;-74
2023/03/25 18:51:50;;;;;;;;;;;;;;;7.73;100.00;95193.69;10512023;28;1962;-74
2023/03/25 18:56:52;;;;;;;;;;;;;;;7.69;100.00;95186.47;10509020;28;2024;-71
2023/03/25 19:01:58;;;;;;;;;;;;;;;7.57;100.00;95198.28;10512519;28;1970;-75
2023/03/25 19:07:02;;;;;;;;;;;;;;;7.46;100.00;95188.66;10513907;28;2084;-72
2023/03/25 19:12:05;;;;;;;;;;;;;;;7.45;100.00;95208.44;10517399;28;1982;-72
2023/03/25 19:17:08;;;;;;;;;;;;;;;7.44;100.00;95190.75;10537902;28;1918;-72
2023/03/25 19:22:15;;;;;;;;;;;;;;;7.39;100.00;95198.81;10529547;28;1525;-72
2023/03/25 19:27:19;;;;;;;;;;;;;;;7.35;100.00;95192.38;10516354;28;1974;-73
2023/03/25 19:32:22;;;;;;;;;;;;;;;7.25;100.00;95197.72;10511348;28;2068;-71
2023/03/25 19:37:29;;;;;;;;;;;;;;;7.24;100.00;95193.44;10507981;28;2094;-73
2023/03/25 19:42:34;;;;;;;;;;;;;;;7.13;100.00;95197.19;10514505;28;1974;-73
2023/03/25 19:47:40;;;;;;;;;;;;;;;7.12;100.00;95190.22;10511758;28;1979;-72
2023/03/25 19:52:53;;;;;;;;;;;;;;;7.02;100.00;95199.84;10505439;28;1990;-72
2023/03/25 19:57:55;;;;;;;;;;;;;;;7.02;100.00;95197.16;10499058;28;2160;-72
2023/03/25 20:03:00;;;;;;;;;;;;;;;6.98;100.00;95209.44;10504067;28;2168;-73
2023/03/25 20:08:04;;;;;;;;;;;;;;;6.89;100.00;95205.69;10511725;28;2006;-71
2023/03/25 20:13:06;;;;;;;;;;;;;;;6.89;100.00;95208.38;10508591;28;1944;-73
2023/03/25 20:18:09;;;;;;;;;;;;;;;6.88;100.00;95204.09;10511596;28;2059;-72
2023/03/25 20:23:13;;;;;;;;;;;;;;;6.86;100.00;95200.88;10524307;28;1955;-74
2023/03/25 20:28:17;;;;;;;;;;;;;;;6.86;100.00;95208.06;10516572;28;1968;-75
2023/03/25 20:39:24;;;;;;;;;;;;;;;6.80;100.00;95201.13;10511001;28;2011;-73
2023/03/25 20:44:26;;;;;;;;;;;;;;;6.77;100.00;95213.13;10505761;28;2109;-72
2023/03/25 20:49:28;;;;;;;;;;;;;;;6.77;100.00;95223.81;10506011;28;1994;-74
2023/03/25 20:54:31;;;;;;;;;;;;;;;6.79;100.00;95221.69;10512955;28;2006;-74
2023/03/25 20:59:33;;;;;;;;;;;;;;;6.83;100.00;95224.66;10507198;28;2102;-73
2023/03/25 21:04:37;;;;;;;;;;;;;;;6.90;100.00;95223.31;10504991;28;1979;-72
2023/03/25 21:09:39;;;;;;;;;;;;;;;6.95;100.00;95235.91;10520176;28;1982;-72
2023/03/25 21:14:42;;;;;;;;;;;;;;;7.01;100.00;95235.66;10501281;28;2000;-72
2023/03/25 21:19:45;;;;;;;;;;;;;;;6.91;100.00;95232.94;10503994;28;2121;-77
2023/03/25 21:24:57;;;;;;;;;;;;;;;6.87;100.00;95223.03;10508182;28;1967;-71
2023/03/25 21:30:00;;;;;;;;;;;;;;;6.84;100.00;95224.38;10506737;28;2091;-72
2023/03/25 21:35:03;;;;;;;;;;;;;;;6.82;100.00;95215.84;10508155;28;2052;-73
2023/03/25 21:40:08;;;;;;;;;;;;;;;6.83;100.00;95221.97;10515344;28;2136;-71
2023/03/25 21:45:12;;;;;;;;;;;;;;;6.85;100.00;95220.63;10502664;28;1985;-73
2023/03/25 21:50:16;;;;;;;;;;;;;;;6.89;100.00;95204.91;10482901;28;2001;-72
2023/03/25 21:55:21;;;;;;;;;;;;;;;6.88;100.00;95193.41;10508971;28;2097;-72
2023/03/25 22:00:24;;;;;;;;;;;;;;;6.82;100.00;95205.16;10515081;28;2014;-75
2023/03/25 22:05:36;;;;;;;;;;;;;;;6.80;100.00;95199.25;10508993;28;1975;-72
2023/03/25 22:10:39;;;;;;;;;;;;;;;6.70;100.00;95185.88;10504896;28;2041;-72
2023/03/25 22:15:42;;;;;;;;;;;;;;;6.69;100.00;95193.09;10499493;28;2032;-72
2023/03/25 22:20:45;;;;;;;;;;;;;;;6.61;100.00;95193.59;10506574;28;2038;-72
2023/03/25 22:25:49;;;;;;;;;;;;;;;6.64;100.00;95189.59;10500619;28;2069;-75
2023/03/25 22:30:51;;;;;;;;;;;;;;;6.59;100.00;95184.25;10488922;28;1979;-70
2023/03/25 22:36:00;;;;;;;;;;;;;;;6.54;100.00;95193.03;10500702;28;1971;-73
2023/03/25 22:41:02;;;;;;;;;;;;;;;6.50;100.00;95206.13;10502408;28;1979;-72
2023/03/25 22:46:05;;;;;;;;;;;;;;;6.52;100.00;95216.53;10504054;28;2033;-72
2023/03/25 22:51:07;;;;;;;;;;;;;;;6.54;100.00;95213.59;10509678;28;1974;-73
2023/03/25 22:56:14;;;;;;;;;;;;;;;6.52;100.00;95221.06;10508004;28;1987;-73
2023/03/25 23:01:17;;;;;;;;;;;;;;;6.47;100.00;95209.28;10500466;28;2073;-71
2023/03/25 23:06:19;;;;;;;;;;;;;;;6.42;100.00;95201.25;10501548;28;2160;-71
2023/03/25 23:11:22;;;;;;;;;;;;;;;6.35;100.00;95210.56;10500556;28;2057;-72
2023/03/25 23:16:25;;;;;;;;;;;;;;;6.24;100.00;95201.75;10506921;28;2109;-72
2023/03/25 23:21:27;;;;;;;;;;;;;;;6.31;100.00;95194.28;10483011;28;2003;-71
2023/03/25 23:26:33;;;;;;;;;;;;;;;6.38;100.00;95197.53;10511806;28;1987;-73
2023/03/25 23:31:35;;;;;;;;;;;;;;;6.53;100.00;95195.97;10511227;28;1916;-73
2023/03/25 23:36:38;;;;;;;;;;;;;;;6.66;100.00;95200.81;10512967;28;1995;-72
2023/03/25 23:41:41;;;;;;;;;;;;;;;6.80;100.00;95196.56;10508735;28;2113;-72
2023/03/25 23:46:43;;;;;;;;;;;;;;;6.95;100.00;95204.63;10505529;28;2102;-72
2023/03/25 23:51:47;;;;;;;;;;;;;;;7.03;100.00;95212.13;10506184;28;1959;-72
2023/03/25 23:56:49;;;;;;;;;;;;;;;7.12;100.00;95208.94;10501731;28;2108;-73
